createdAt,value
2018-08-12T00:00:18.216Z,18.20
2018-08-12T00:02:58.832Z,18.10
2018-08-12T00:05:41.643Z,18.00
2018-08-12T00:08:27.282Z,18.00
2018-08-12T00:11:07.597Z,18.00
2018-08-12T00:16:41.508Z,17.90
2018-08-12T00:19:32.005Z,18.00
2018-08-12T00:22:08.678Z,17.90
2018-08-12T00:24:51.196Z,18.00
2018-08-12T00:27:29.403Z,18.10
2018-08-12T00:30:11.083Z,17.90
2018-08-12T00:50:07.850Z,17.70
2018-08-12T00:52:52.207Z,17.70
2018-08-12T01:04:12.561Z,17.70
2018-08-12T01:06:47.873Z,17.60
2018-08-12T01:09:33.190Z,17.60
2018-08-12T01:12:08.591Z,17.60
2018-08-12T01:14:46.113Z,17.60
2018-08-12T01:17:22.211Z,17.50
2018-08-12T01:19:55.583Z,17.50
2018-08-12T01:22:31.525Z,17.50
2018-08-12T01:25:11.246Z,17.60
2018-08-12T01:27:53.599Z,17.50
2018-08-12T01:30:33.220Z,17.40
2018-08-12T01:33:14.198Z,17.40
2018-08-12T01:36:01.722Z,17.30
2018-08-12T01:38:38.067Z,17.20
2018-08-12T01:41:20.344Z,17.10
2018-08-12T01:43:59.013Z,17.10
2018-08-12T01:46:40.297Z,17.00
2018-08-12T01:49:20.397Z,16.90
2018-08-12T01:52:00.792Z,16.90
2018-08-12T02:03:14.405Z,16.80
2018-08-12T02:05:50.669Z,16.80
2018-08-12T02:08:30.825Z,16.70
2018-08-12T02:10:58.802Z,16.70
2018-08-12T02:13:26.553Z,16.70
2018-08-12T02:15:54.316Z,16.70
2018-08-12T02:18:22.256Z,16.70
2018-08-12T02:20:50.288Z,16.70
2018-08-12T02:23:18.092Z,16.70
2018-08-12T02:25:45.904Z,16.60
2018-08-12T02:28:13.763Z,16.60
2018-08-12T02:30:41.548Z,16.60
2018-08-12T02:33:09.309Z,16.60
2018-08-12T02:35:37.097Z,16.60
2018-08-12T02:38:04.929Z,16.50
2018-08-12T02:40:32.717Z,16.50
2018-08-12T02:43:00.900Z,16.40
2018-08-12T02:45:28.665Z,16.50
2018-08-12T02:47:56.444Z,16.40
2018-08-12T02:50:24.172Z,16.40
2018-08-12T02:52:51.953Z,16.40
2018-08-12T02:55:19.885Z,16.40
2018-08-12T02:57:47.637Z,16.30
2018-08-12T03:00:15.456Z,16.50
2018-08-12T03:02:43.513Z,16.50
2018-08-12T03:05:11.396Z,16.40
2018-08-12T03:07:39.160Z,16.40
2018-08-12T03:10:07.434Z,16.30
2018-08-12T03:12:35.333Z,16.30
2018-08-12T03:15:03.328Z,16.30
2018-08-12T03:17:31.104Z,16.30
2018-08-12T03:19:58.874Z,16.30
2018-08-12T03:22:26.740Z,16.20
2018-08-12T03:24:54.484Z,16.20
2018-08-12T03:27:22.263Z,16.20
2018-08-12T03:29:50.025Z,16.10
2018-08-12T03:32:17.853Z,16.00
2018-08-12T03:34:45.641Z,16.00
2018-08-12T03:37:13.424Z,16.00
2018-08-12T03:39:42.445Z,16.00
2018-08-12T03:42:10.221Z,16.00
2018-08-12T03:44:37.999Z,16.00
2018-08-12T03:47:05.892Z,15.90
2018-08-12T03:49:33.664Z,15.80
2018-08-12T03:52:01.437Z,15.80
2018-08-12T03:54:29.357Z,15.70
2018-08-12T03:56:57.421Z,15.70
2018-08-12T03:59:25.187Z,15.80
2018-08-12T04:01:53.068Z,15.80
2018-08-12T04:04:21.159Z,15.70
2018-08-12T04:06:51.173Z,15.70
2018-08-12T04:09:33.108Z,15.70
2018-08-12T04:12:11.180Z,15.70
2018-08-12T04:14:39.073Z,15.70
2018-08-12T04:17:06.824Z,15.90
2018-08-12T04:19:45.364Z,15.80
2018-08-12T04:22:30.681Z,15.60
2018-08-12T04:24:58.496Z,15.50
2018-08-12T04:27:37.536Z,15.40
2018-08-12T04:30:19.738Z,15.50
2018-08-12T04:58:57.441Z,15.40
2018-08-12T05:01:37.057Z,15.40
2018-08-12T05:04:12.502Z,15.40
2018-08-12T05:06:47.642Z,15.40
2018-08-12T05:09:28.004Z,15.60
2018-08-12T05:29:25.789Z,16.00
2018-08-12T05:32:04.840Z,16.30
2018-08-12T05:52:01.780Z,16.70
2018-08-12T05:54:45.831Z,16.80
2018-08-12T05:57:26.270Z,17.00
2018-08-12T06:00:05.935Z,17.20
2018-08-12T06:02:47.279Z,17.50
2018-08-12T06:05:27.574Z,17.80
2018-08-12T06:08:07.017Z,18.10
2018-08-12T06:10:48.040Z,18.50
2018-08-12T06:13:25.581Z,18.80
2018-08-12T06:16:00.416Z,19.20
2018-08-12T06:30:11.702Z,21.10
2018-08-12T06:32:52.962Z,21.80
2018-08-12T06:35:33.622Z,22.10
2018-08-12T06:38:10.904Z,22.40
2018-08-12T06:40:52.498Z,22.80
2018-08-12T06:43:26.883Z,23.30
2018-08-12T06:46:05.932Z,24.10
2018-08-12T06:48:41.360Z,24.40
2018-08-12T06:51:20.654Z,24.70
2018-08-12T06:53:48.417Z,25.00
2018-08-12T06:56:16.340Z,25.40
2018-08-12T06:58:51.779Z,25.30
2018-08-12T07:01:19.768Z,25.40
2018-08-12T07:03:51.265Z,25.80
2018-08-12T07:06:30.852Z,25.90
2018-08-12T07:09:10.167Z,26.00
2018-08-12T07:11:50.532Z,26.30
2018-08-12T07:17:19.477Z,26.50
2018-08-12T07:19:59.663Z,26.70
2018-08-12T07:22:38.360Z,27.00
2018-08-12T07:25:18.365Z,27.30
2018-08-12T07:28:00.919Z,27.50
2018-08-12T07:30:41.283Z,27.70
2018-08-12T07:33:20.509Z,27.80
2018-08-12T07:36:00.160Z,27.90
2018-08-12T07:38:42.175Z,28.20
2018-08-12T07:41:25.556Z,28.10
2018-08-12T07:44:07.482Z,28.30
2018-08-12T07:46:47.432Z,28.60
2018-08-12T07:49:27.632Z,28.60
2018-08-12T07:52:08.768Z,28.70
2018-08-12T07:54:46.670Z,28.80
2018-08-12T07:57:27.951Z,28.90
2018-08-12T08:00:07.065Z,29.00
2018-08-12T08:02:48.457Z,29.20
2018-08-12T08:05:28.110Z,29.40
2018-08-12T08:08:09.391Z,29.60
2018-08-12T08:10:47.600Z,29.80
2018-08-12T08:13:31.032Z,29.90
2018-08-12T08:16:10.471Z,30.10
2018-08-12T08:18:50.920Z,30.20
2018-08-12T08:21:18.761Z,30.70
2018-08-12T08:24:00.190Z,30.70
2018-08-12T08:26:39.936Z,30.90
2018-08-12T08:29:08.393Z,31.10
2018-08-12T08:31:36.205Z,31.30
2018-08-12T08:34:04.092Z,31.60
2018-08-12T08:36:31.887Z,31.80
2018-08-12T08:39:14.425Z,32.00
2018-08-12T08:41:50.789Z,32.20
2018-08-12T08:47:11.304Z,32.80
2018-08-12T08:49:50.760Z,32.80
2018-08-12T08:52:30.385Z,33.00
2018-08-12T08:55:07.673Z,33.10
2018-08-12T08:57:45.844Z,33.20
2018-08-12T09:00:26.206Z,33.30
2018-08-12T09:08:51.779Z,33.60
2018-08-12T09:11:40.872Z,33.70
2018-08-12T09:20:04.820Z,33.60
2018-08-12T09:22:45.170Z,33.60
2018-08-12T09:25:23.862Z,33.60
2018-08-12T09:28:04.223Z,33.70
2018-08-12T09:30:44.579Z,33.60
2018-08-12T09:33:26.592Z,33.60
2018-08-12T09:36:05.609Z,33.70
2018-08-12T09:38:43.509Z,33.80
2018-08-12T09:41:23.254Z,33.60
2018-08-12T09:44:03.307Z,33.40
2018-08-12T09:46:41.216Z,33.60
2018-08-12T09:49:20.034Z,33.60
2018-08-12T09:51:54.611Z,33.60
2018-08-12T09:54:22.824Z,33.60
2018-08-12T09:56:50.646Z,33.50
2018-08-12T09:59:29.222Z,33.40
2018-08-12T10:02:04.662Z,33.30
2018-08-12T10:04:45.737Z,33.20
2018-08-12T10:07:28.506Z,33.30
2018-08-12T10:10:09.122Z,33.40
2018-08-12T10:12:50.096Z,33.40
2018-08-12T10:15:18.652Z,33.50
2018-08-12T10:17:49.460Z,33.60
2018-08-12T10:20:17.345Z,33.70
2018-08-12T10:22:54.364Z,33.80
2018-08-12T10:25:22.808Z,34.10
2018-08-12T10:27:50.593Z,34.40
2018-08-12T10:30:26.262Z,34.50
2018-08-12T10:32:54.332Z,34.60
2018-08-12T10:35:22.096Z,34.70
2018-08-12T10:37:49.907Z,34.90
2018-08-12T10:40:18.992Z,35.00
2018-08-12T10:42:47.660Z,35.10
2018-08-12T10:45:15.778Z,35.30
2018-08-12T10:47:44.041Z,35.40
2018-08-12T10:50:24.971Z,35.50
2018-08-12T10:53:00.980Z,35.70
2018-08-12T10:55:28.881Z,35.80
2018-08-12T10:58:07.808Z,35.90
2018-08-12T11:00:51.361Z,36.00
2018-08-12T11:03:28.649Z,35.90
2018-08-12T11:05:57.304Z,35.90
2018-08-12T11:08:37.063Z,36.00
2018-08-12T11:11:15.591Z,35.90
2018-08-12T11:13:54.766Z,36.00
2018-08-12T11:16:38.466Z,36.00
2018-08-12T11:19:15.446Z,36.10
2018-08-12T11:21:53.959Z,36.20
2018-08-12T11:24:33.144Z,36.20
2018-08-12T11:27:12.840Z,36.30
2018-08-12T11:29:49.893Z,36.40
2018-08-12T11:49:46.418Z,37.00
2018-08-12T12:09:41.928Z,37.80
2018-08-12T12:23:46.815Z,38.60
2018-08-12T12:26:25.949Z,38.80
2018-08-12T12:28:59.869Z,38.80
2018-08-12T12:31:39.911Z,38.90
2018-08-12T12:34:20.270Z,38.90
2018-08-12T12:39:51.132Z,38.90
2018-08-12T12:42:33.336Z,38.90
2018-08-12T12:45:13.692Z,38.80
2018-08-12T12:47:54.978Z,39.00
2018-08-12T12:50:43.199Z,39.10
2018-08-12T12:53:11.054Z,39.10
2018-08-12T12:55:50.217Z,39.20
2018-08-12T12:58:27.505Z,39.40
2018-08-12T13:00:56.104Z,39.40
2018-08-12T13:03:23.944Z,39.40
2018-08-12T13:05:59.196Z,39.50
2018-08-12T13:08:39.762Z,39.50
2018-08-12T13:11:25.904Z,39.50
2018-08-12T13:13:59.560Z,39.60
2018-08-12T13:16:36.852Z,39.60
2018-08-12T13:19:21.816Z,39.60
2018-08-12T13:22:02.483Z,39.60
2018-08-12T13:24:41.923Z,39.60
2018-08-12T13:27:23.930Z,39.60
2018-08-12T13:29:51.765Z,39.70
2018-08-12T13:32:29.797Z,39.70
2018-08-12T13:35:12.610Z,39.60
2018-08-12T13:37:50.994Z,39.50
2018-08-12T13:40:18.820Z,39.40
2018-08-12T13:42:59.869Z,39.60
2018-08-12T13:45:29.029Z,39.40
2018-08-12T13:48:08.616Z,39.20
2018-08-12T13:50:36.480Z,39.00
2018-08-12T13:53:12.489Z,38.80
2018-08-12T13:56:00.776Z,38.70
2018-08-12T13:58:28.848Z,38.50
2018-08-12T14:01:10.259Z,38.50
2018-08-12T14:03:49.569Z,38.30
2018-08-12T14:06:17.385Z,38.00
2018-08-12T14:08:59.233Z,37.70
2018-08-12T14:11:30.675Z,37.50
2018-08-12T14:13:58.461Z,37.30
2018-08-12T14:16:36.347Z,36.90
2018-08-12T14:19:16.093Z,36.70
2018-08-12T14:21:56.147Z,36.40
2018-08-12T14:24:31.280Z,36.10
2018-08-12T14:27:14.715Z,35.80
2018-08-12T14:29:54.154Z,35.40
2018-08-12T14:32:34.249Z,35.10
2018-08-12T14:35:14.567Z,34.90
2018-08-12T14:37:53.940Z,34.70
2018-08-12T14:43:13.804Z,34.10
2018-08-12T14:45:57.035Z,33.90
2018-08-12T14:48:32.366Z,33.80
2018-08-12T14:51:14.003Z,33.50
2018-08-12T14:53:54.961Z,33.30
2018-08-12T15:08:04.749Z,32.70
2018-08-12T15:10:52.393Z,32.60
2018-08-12T15:13:31.463Z,32.60
2018-08-12T15:16:08.804Z,32.40
2018-08-12T15:18:50.214Z,32.40
2018-08-12T15:24:21.871Z,32.30
2018-08-12T15:26:50.552Z,32.20
2018-08-12T15:29:32.150Z,32.20
2018-08-12T15:32:10.360Z,32.10
2018-08-12T15:34:51.334Z,32.00
2018-08-12T15:37:31.697Z,32.00
2018-08-12T15:40:16.976Z,32.00
2018-08-12T15:42:56.227Z,31.90
2018-08-12T15:45:35.555Z,31.80
2018-08-12T15:48:03.448Z,31.80
2018-08-12T15:50:46.216Z,31.70
2018-08-12T15:53:25.256Z,31.70
2018-08-12T15:56:06.534Z,31.60
2018-08-12T15:58:48.430Z,31.50
2018-08-12T16:01:28.591Z,31.50
2018-08-12T16:04:13.889Z,31.50
2018-08-12T16:06:55.347Z,31.30
2018-08-12T16:09:37.858Z,31.50
2018-08-12T16:12:07.944Z,31.40
2018-08-12T16:14:35.764Z,31.40
2018-08-12T16:17:17.746Z,31.30
2018-08-12T16:19:51.724Z,31.30
2018-08-12T16:22:19.607Z,31.30
2018-08-12T16:24:47.423Z,31.30
2018-08-12T16:27:33.068Z,31.30
2018-08-12T16:30:15.271Z,31.20
2018-08-12T16:32:55.631Z,31.20
2018-08-12T16:35:38.781Z,31.10
2018-08-12T16:38:17.275Z,31.00
2018-08-12T16:41:00.092Z,31.00
2018-08-12T16:43:37.739Z,30.90
2018-08-12T16:48:58.288Z,30.80
2018-08-12T16:51:35.690Z,30.70
2018-08-12T16:54:14.217Z,30.60
2018-08-12T16:57:03.961Z,30.60
2018-08-12T16:59:46.605Z,30.50
2018-08-12T17:02:21.054Z,30.50
2018-08-12T17:04:56.451Z,30.40
2018-08-12T17:07:28.258Z,30.40
2018-08-12T17:10:09.003Z,30.30
2018-08-12T17:12:49.352Z,30.30
2018-08-12T17:15:33.702Z,30.20
2018-08-12T17:21:06.370Z,30.10
2018-08-12T17:23:34.183Z,30.00
2018-08-12T17:26:11.159Z,29.90
2018-08-12T17:28:47.833Z,29.90
2018-08-12T17:31:15.928Z,29.80
2018-08-12T17:33:43.759Z,29.80
2018-08-12T17:39:18.220Z,29.70
2018-08-12T17:47:37.045Z,29.40
2018-08-12T17:50:05.377Z,29.20
2018-08-12T17:52:46.466Z,29.20
2018-08-12T17:55:14.964Z,29.10
2018-08-12T17:57:58.964Z,29.10
2018-08-12T18:00:40.480Z,29.00
2018-08-12T18:03:20.840Z,29.00
2018-08-12T18:06:02.889Z,28.90
2018-08-12T18:08:41.560Z,28.80
2018-08-12T18:11:22.556Z,28.70
2018-08-12T18:13:50.306Z,28.70
2018-08-12T18:16:30.207Z,28.60
2018-08-12T18:19:11.552Z,28.50
2018-08-12T18:24:43.414Z,28.40
2018-08-12T18:27:22.653Z,28.20
2018-08-12T18:29:50.637Z,28.10
2018-08-12T18:32:18.424Z,28.00
2018-08-12T18:34:46.513Z,27.80
2018-08-12T18:37:14.373Z,27.70
2018-08-12T18:39:42.120Z,27.70
2018-08-12T18:42:09.994Z,27.60
2018-08-12T18:44:50.797Z,27.40
2018-08-12T18:47:26.474Z,27.40
2018-08-12T18:49:54.824Z,27.20
2018-08-12T18:52:22.630Z,27.10
2018-08-12T18:54:58.984Z,27.00
2018-08-12T18:57:34.736Z,27.00
2018-08-12T19:00:20.933Z,26.90
2018-08-12T19:03:01.297Z,26.80
2018-08-12T19:05:39.815Z,26.80
2018-08-12T19:08:14.947Z,26.60
2018-08-12T19:10:56.233Z,26.60
2018-08-12T19:13:34.443Z,26.50
2018-08-12T19:16:02.259Z,26.40
2018-08-12T19:18:53.321Z,26.30
2018-08-12T19:21:36.498Z,26.20
2018-08-12T19:24:17.108Z,26.10
2018-08-12T19:26:51.718Z,26.20
2018-08-12T19:29:19.513Z,26.10
2018-08-12T19:31:59.141Z,26.00
2018-08-12T19:34:27.196Z,26.00
2018-08-12T19:37:09.724Z,26.00
2018-08-12T19:39:38.239Z,26.00
2018-08-12T19:42:22.162Z,26.10
2018-08-12T19:45:07.736Z,26.30
2018-08-12T19:47:47.478Z,26.10
2018-08-12T19:50:28.184Z,26.00
2018-08-12T19:53:07.897Z,26.00
2018-08-12T19:55:51.022Z,25.90
2018-08-12T19:58:33.213Z,25.90
2018-08-12T20:01:12.660Z,25.80
2018-08-12T20:03:52.097Z,25.70
2018-08-12T20:06:31.538Z,25.60
2018-08-12T20:26:30.701Z,25.90
2018-08-12T20:29:11.217Z,25.80
2018-08-12T20:31:49.732Z,25.70
2018-08-12T20:51:47.905Z,25.40
2018-08-12T20:54:29.249Z,25.40
2018-08-12T20:57:08.585Z,25.30
2018-08-12T20:59:49.827Z,25.20
2018-08-12T21:02:30.494Z,25.30
2018-08-12T21:05:11.164Z,25.30
2018-08-12T21:07:49.956Z,25.10
2018-08-12T21:10:25.430Z,25.10
2018-08-12T21:13:04.869Z,25.10
2018-08-12T21:15:45.011Z,25.00
2018-08-12T21:18:26.510Z,24.90
2018-08-12T21:21:09.653Z,25.00
2018-08-12T21:23:50.993Z,25.00
2018-08-12T21:26:35.278Z,24.90
2018-08-12T21:46:34.893Z,24.70
2018-08-12T21:49:16.239Z,24.60
2018-08-12T21:51:57.769Z,24.60
2018-08-12T21:54:40.897Z,24.70
2018-08-12T21:57:22.294Z,24.60
2018-08-12T22:00:01.922Z,24.60
2018-08-12T22:02:44.127Z,24.60
2018-08-12T22:05:24.333Z,24.50
2018-08-12T22:08:06.703Z,24.40
2018-08-12T22:10:49.021Z,24.40
2018-08-12T22:13:33.371Z,24.30
2018-08-12T22:16:10.713Z,24.20
2018-08-12T22:18:51.050Z,24.20
2018-08-12T22:21:30.410Z,24.10
2018-08-12T22:41:30.948Z,24.40
2018-08-12T22:43:58.932Z,24.40
2018-08-12T22:46:39.597Z,24.40
2018-08-12T22:49:18.138Z,24.40
2018-08-12T22:51:57.344Z,24.50
2018-08-12T22:54:35.786Z,24.40
2018-08-12T23:00:04.313Z,24.40
2018-08-12T23:02:32.128Z,24.30
2018-08-12T23:05:13.004Z,24.30
2018-08-12T23:07:54.569Z,24.10
2018-08-12T23:10:35.796Z,24.00
2018-08-12T23:13:19.010Z,24.10
2018-08-12T23:16:25.150Z,24.00
2018-08-12T23:18:54.544Z,24.20
2018-08-12T23:21:22.642Z,24.10
2018-08-12T23:23:51.625Z,24.00
2018-08-12T23:26:20.868Z,23.90
2018-08-12T23:28:48.640Z,23.90
2018-08-12T23:31:16.476Z,23.90
2018-08-12T23:33:44.279Z,23.90
2018-08-12T23:36:12.168Z,23.80
2018-08-12T23:38:40.016Z,23.90
2018-08-12T23:41:08.696Z,23.80
2018-08-12T23:43:36.774Z,23.80
2018-08-12T23:46:04.826Z,23.70
2018-08-12T23:48:32.868Z,23.80
2018-08-12T23:51:01.399Z,23.70
2018-08-12T23:53:29.392Z,23.70
2018-08-12T23:55:57.217Z,23.70
2018-08-12T23:58:25.140Z,23.70
